sensor_id;sensor_type;location;lat;lon;timestamp;P1;durP1;ratioP1;P2;durP2;ratioP2
6864;SDS011;3471;49.678;8.388;2023-04-07T00:02:10;11.90;;;10.73;;
6864;SDS011;3471;49.678;8.388;2023-04-07T00:04:36;10.70;;;9.60;;
6864;SDS011;3471;49.678;8.388;2023-04-07T00:07:02;12.90;;;8.68;;
6864;SDS011;3471;49.678;8.388;2023-04-07T00:09:27;9.43;;;8.30;;
6864;SDS011;3471;49.678;8.388;2023-04-07T00:11:53;12.60;;;11.03;;
6864;SDS011;3471;49.678;8.388;2023-04-07T00:14:18;12.07;;;8.90;;
6864;SDS011;3471;49.678;8.388;2023-04-07T00:16:44;14.48;;;10.52;;
6864;SDS011;3471;49.678;8.388;2023-04-07T00:19:10;11.57;;;9.60;;
6864;SDS011;3471;49.678;8.388;2023-04-07T00:21:35;13.75;;;8.43;;
6864;SDS011;3471;49.678;8.388;2023-04-07T00:24:01;11.50;;;9.20;;
6864;SDS011;3471;49.678;8.388;2023-04-07T00:26:27;20.73;;;10.00;;
6864;SDS011;3471;49.678;8.388;2023-04-07T00:28:55;9.70;;;8.70;;
6864;SDS011;3471;49.678;8.388;2023-04-07T00:31:21;14.23;;;9.55;;
6864;SDS011;3471;49.678;8.388;2023-04-07T00:33:47;10.90;;;8.57;;
6864;SDS011;3471;49.678;8.388;2023-04-07T00:36:13;15.23;;;10.45;;
6864;SDS011;3471;49.678;8.388;2023-04-07T00:38:39;12.33;;;8.53;;
6864;SDS011;3471;49.678;8.388;2023-04-07T00:41:05;13.38;;;8.88;;
6864;SDS011;3471;49.678;8.388;2023-04-07T00:43:30;18.67;;;8.43;;
6864;SDS011;3471;49.678;8.388;2023-04-07T00:45:56;12.27;;;9.10;;
6864;SDS011;3471;49.678;8.388;2023-04-07T00:48:22;12.18;;;9.48;;
6864;SDS011;3471;49.678;8.388;2023-04-07T00:50:47;13.07;;;9.03;;
6864;SDS011;3471;49.678;8.388;2023-04-07T00:53:13;11.00;;;9.90;;
6864;SDS011;3471;49.678;8.388;2023-04-07T00:55:40;11.48;;;9.30;;
6864;SDS011;3471;49.678;8.388;2023-04-07T00:58:05;14.07;;;8.37;;
6864;SDS011;3471;49.678;8.388;2023-04-07T01:00:32;19.92;;;9.52;;
6864;SDS011;3471;49.678;8.388;2023-04-07T01:03:05;9.15;;;8.23;;
6864;SDS011;3471;49.678;8.388;2023-04-07T01:05:44;10.93;;;8.77;;
6864;SDS011;3471;49.678;8.388;2023-04-07T01:08:20;14.18;;;8.55;;
6864;SDS011;3471;49.678;8.388;2023-04-07T01:10:51;8.23;;;7.03;;
6864;SDS011;3471;49.678;8.388;2023-04-07T01:13:45;11.73;;;7.88;;
6864;SDS011;3471;49.678;8.388;2023-04-07T01:16:26;14.07;;;9.95;;
6864;SDS011;3471;49.678;8.388;2023-04-07T01:18:55;14.10;;;7.97;;
6864;SDS011;3471;49.678;8.388;2023-04-07T01:21:26;9.05;;;7.30;;
6864;SDS011;3471;49.678;8.388;2023-04-07T01:26:46;11.25;;;8.27;;
6864;SDS011;3471;49.678;8.388;2023-04-07T01:32:05;13.17;;;9.27;;
6864;SDS011;3471;49.678;8.388;2023-04-07T01:34:35;12.77;;;8.18;;
6864;SDS011;3471;49.678;8.388;2023-04-07T01:37:03;11.23;;;8.93;;
6864;SDS011;3471;49.678;8.388;2023-04-07T01:39:30;8.45;;;7.18;;
6864;SDS011;3471;49.678;8.388;2023-04-07T01:41:57;12.32;;;8.45;;
6864;SDS011;3471;49.678;8.388;2023-04-07T01:44:26;9.55;;;6.57;;
6864;SDS011;3471;49.678;8.388;2023-04-07T01:46:53;8.80;;;7.20;;
6864;SDS011;3471;49.678;8.388;2023-04-07T01:49:20;15.57;;;9.68;;
6864;SDS011;3471;49.678;8.388;2023-04-07T01:51:47;10.48;;;8.80;;
6864;SDS011;3471;49.678;8.388;2023-04-07T01:54:14;9.65;;;8.55;;
6864;SDS011;3471;49.678;8.388;2023-04-07T01:56:41;10.25;;;9.25;;
6864;SDS011;3471;49.678;8.388;2023-04-07T01:59:08;10.68;;;8.27;;
6864;SDS011;3471;49.678;8.388;2023-04-07T02:01:34;8.75;;;7.38;;
6864;SDS011;3471;49.678;8.388;2023-04-07T02:04:21;9.30;;;7.90;;
6864;SDS011;3471;49.678;8.388;2023-04-07T02:06:56;9.90;;;8.13;;
6864;SDS011;3471;49.678;8.388;2023-04-07T02:09:25;13.25;;;9.50;;
6864;SDS011;3471;49.678;8.388;2023-04-07T02:11:55;10.35;;;8.32;;
6864;SDS011;3471;49.678;8.388;2023-04-07T02:14:23;11.68;;;7.20;;
6864;SDS011;3471;49.678;8.388;2023-04-07T02:16:50;10.65;;;8.32;;
6864;SDS011;3471;49.678;8.388;2023-04-07T02:19:16;13.37;;;9.90;;
6864;SDS011;3471;49.678;8.388;2023-04-07T02:21:43;10.32;;;8.07;;
6864;SDS011;3471;49.678;8.388;2023-04-07T02:24:10;10.23;;;8.23;;
6864;SDS011;3471;49.678;8.388;2023-04-07T02:26:36;8.73;;;7.32;;
6864;SDS011;3471;49.678;8.388;2023-04-07T02:29:05;9.18;;;8.10;;
6864;SDS011;3471;49.678;8.388;2023-04-07T02:31:30;8.20;;;7.40;;
6864;SDS011;3471;49.678;8.388;2023-04-07T02:33:56;9.67;;;8.50;;
6864;SDS011;3471;49.678;8.388;2023-04-07T02:36:22;8.52;;;7.72;;
6864;SDS011;3471;49.678;8.388;2023-04-07T02:38:48;13.43;;;8.70;;
6864;SDS011;3471;49.678;8.388;2023-04-07T02:41:13;12.25;;;8.93;;
6864;SDS011;3471;49.678;8.388;2023-04-07T02:43:39;12.30;;;9.97;;
6864;SDS011;3471;49.678;8.388;2023-04-07T02:46:05;14.97;;;9.80;;
6864;SDS011;3471;49.678;8.388;2023-04-07T02:48:30;13.65;;;9.23;;
6864;SDS011;3471;49.678;8.388;2023-04-07T02:50:56;10.30;;;8.93;;
6864;SDS011;3471;49.678;8.388;2023-04-07T02:53:22;12.18;;;8.73;;
6864;SDS011;3471;49.678;8.388;2023-04-07T02:55:47;10.73;;;7.50;;
6864;SDS011;3471;49.678;8.388;2023-04-07T02:58:13;14.50;;;10.25;;
6864;SDS011;3471;49.678;8.388;2023-04-07T03:00:39;9.90;;;7.67;;
6864;SDS011;3471;49.678;8.388;2023-04-07T03:03:05;17.30;;;7.93;;
6864;SDS011;3471;49.678;8.388;2023-04-07T03:05:30;10.00;;;8.93;;
6864;SDS011;3471;49.678;8.388;2023-04-07T03:07:56;12.80;;;9.30;;
6864;SDS011;3471;49.678;8.388;2023-04-07T03:10:21;10.85;;;8.25;;
6864;SDS011;3471;49.678;8.388;2023-04-07T03:12:47;8.40;;;7.57;;
6864;SDS011;3471;49.678;8.388;2023-04-07T03:15:13;7.93;;;7.13;;
6864;SDS011;3471;49.678;8.388;2023-04-07T03:17:38;12.87;;;8.10;;
6864;SDS011;3471;49.678;8.388;2023-04-07T03:20:04;13.23;;;9.73;;
6864;SDS011;3471;49.678;8.388;2023-04-07T03:22:31;9.00;;;7.95;;
6864;SDS011;3471;49.678;8.388;2023-04-07T03:24:57;10.63;;;8.75;;
6864;SDS011;3471;49.678;8.388;2023-04-07T03:27:22;11.90;;;9.87;;
6864;SDS011;3471;49.678;8.388;2023-04-07T03:29:48;11.13;;;7.73;;
6864;SDS011;3471;49.678;8.388;2023-04-07T03:32:15;12.02;;;8.70;;
6864;SDS011;3471;49.678;8.388;2023-04-07T03:34:41;13.23;;;11.60;;
6864;SDS011;3471;49.678;8.388;2023-04-07T03:37:06;16.25;;;8.38;;
6864;SDS011;3471;49.678;8.388;2023-04-07T03:39:32;12.53;;;9.23;;
6864;SDS011;3471;49.678;8.388;2023-04-07T03:42:01;10.77;;;8.35;;
6864;SDS011;3471;49.678;8.388;2023-04-07T03:44:27;14.63;;;8.82;;
6864;SDS011;3471;49.678;8.388;2023-04-07T03:46:52;20.17;;;9.00;;
6864;SDS011;3471;49.678;8.388;2023-04-07T03:49:18;12.43;;;9.70;;
6864;SDS011;3471;49.678;8.388;2023-04-07T03:51:44;12.48;;;8.43;;
6864;SDS011;3471;49.678;8.388;2023-04-07T03:54:09;9.80;;;8.23;;
6864;SDS011;3471;49.678;8.388;2023-04-07T03:56:35;15.40;;;8.67;;
6864;SDS011;3471;49.678;8.388;2023-04-07T03:59:01;10.87;;;9.30;;
6864;SDS011;3471;49.678;8.388;2023-04-07T04:01:27;15.05;;;10.48;;
6864;SDS011;3471;49.678;8.388;2023-04-07T04:03:52;16.37;;;8.43;;
6864;SDS011;3471;49.678;8.388;2023-04-07T04:06:18;11.82;;;9.68;;
6864;SDS011;3471;49.678;8.388;2023-04-07T04:08:44;10.17;;;8.87;;
6864;SDS011;3471;49.678;8.388;2023-04-07T04:11:09;10.98;;;8.82;;
6864;SDS011;3471;49.678;8.388;2023-04-07T04:13:35;11.60;;;9.60;;
6864;SDS011;3471;49.678;8.388;2023-04-07T04:16:00;17.77;;;8.30;;
6864;SDS011;3471;49.678;8.388;2023-04-07T04:18:26;10.02;;;8.40;;
6864;SDS011;3471;49.678;8.388;2023-04-07T04:20:52;10.93;;;8.43;;
6864;SDS011;3471;49.678;8.388;2023-04-07T04:23:17;18.17;;;10.40;;
6864;SDS011;3471;49.678;8.388;2023-04-07T04:25:43;14.27;;;8.20;;
6864;SDS011;3471;49.678;8.388;2023-04-07T04:28:08;11.03;;;8.47;;
6864;SDS011;3471;49.678;8.388;2023-04-07T04:30:34;21.77;;;9.80;;
6864;SDS011;3471;49.678;8.388;2023-04-07T04:33:00;10.93;;;9.32;;
6864;SDS011;3471;49.678;8.388;2023-04-07T04:35:25;11.20;;;9.60;;
6864;SDS011;3471;49.678;8.388;2023-04-07T04:37:51;14.10;;;10.20;;
6864;SDS011;3471;49.678;8.388;2023-04-07T04:40:16;14.38;;;9.82;;
6864;SDS011;3471;49.678;8.388;2023-04-07T04:42:42;16.87;;;9.53;;
6864;SDS011;3471;49.678;8.388;2023-04-07T04:45:08;10.63;;;9.27;;
6864;SDS011;3471;49.678;8.388;2023-04-07T04:47:33;16.08;;;9.50;;
6864;SDS011;3471;49.678;8.388;2023-04-07T04:49:59;12.35;;;10.07;;
6864;SDS011;3471;49.678;8.388;2023-04-07T04:52:25;11.80;;;10.00;;
6864;SDS011;3471;49.678;8.388;2023-04-07T04:54:51;14.07;;;8.52;;
6864;SDS011;3471;49.678;8.388;2023-04-07T04:57:17;9.98;;;8.98;;
6864;SDS011;3471;49.678;8.388;2023-04-07T04:59:43;11.17;;;10.07;;
6864;SDS011;3471;49.678;8.388;2023-04-07T05:02:08;12.63;;;9.03;;
6864;SDS011;3471;49.678;8.388;2023-04-07T05:04:34;12.15;;;9.77;;
6864;SDS011;3471;49.678;8.388;2023-04-07T05:07:00;13.57;;;10.75;;
6864;SDS011;3471;49.678;8.388;2023-04-07T05:09:26;17.63;;;10.40;;
6864;SDS011;3471;49.678;8.388;2023-04-07T05:11:51;14.87;;;10.87;;
6864;SDS011;3471;49.678;8.388;2023-04-07T05:14:17;16.63;;;10.82;;
6864;SDS011;3471;49.678;8.388;2023-04-07T05:16:42;14.53;;;10.30;;
6864;SDS011;3471;49.678;8.388;2023-04-07T05:19:08;16.33;;;12.27;;
6864;SDS011;3471;49.678;8.388;2023-04-07T05:21:33;13.15;;;10.13;;
6864;SDS011;3471;49.678;8.388;2023-04-07T05:23:59;15.68;;;10.00;;
6864;SDS011;3471;49.678;8.388;2023-04-07T05:26:24;11.73;;;8.17;;
6864;SDS011;3471;49.678;8.388;2023-04-07T05:28:50;13.77;;;9.83;;
6864;SDS011;3471;49.678;8.388;2023-04-07T05:31:15;13.32;;;9.00;;
6864;SDS011;3471;49.678;8.388;2023-04-07T05:33:41;13.40;;;8.77;;
6864;SDS011;3471;49.678;8.388;2023-04-07T05:36:07;13.77;;;11.00;;
6864;SDS011;3471;49.678;8.388;2023-04-07T05:38:32;11.60;;;10.45;;
6864;SDS011;3471;49.678;8.388;2023-04-07T05:40:58;10.97;;;9.77;;
6864;SDS011;3471;49.678;8.388;2023-04-07T05:43:23;12.57;;;9.97;;
6864;SDS011;3471;49.678;8.388;2023-04-07T05:45:49;15.27;;;11.38;;
6864;SDS011;3471;49.678;8.388;2023-04-07T05:48:14;18.83;;;8.63;;
6864;SDS011;3471;49.678;8.388;2023-04-07T05:50:40;9.00;;;8.20;;
6864;SDS011;3471;49.678;8.388;2023-04-07T05:53:06;12.18;;;10.40;;
6864;SDS011;3471;49.678;8.388;2023-04-07T05:55:31;11.20;;;10.10;;
6864;SDS011;3471;49.678;8.388;2023-04-07T05:57:57;14.27;;;9.93;;
6864;SDS011;3471;49.678;8.388;2023-04-07T06:00:23;12.87;;;11.00;;
6864;SDS011;3471;49.678;8.388;2023-04-07T06:02:49;11.10;;;8.85;;
6864;SDS011;3471;49.678;8.388;2023-04-07T06:05:14;17.13;;;10.47;;
6864;SDS011;3471;49.678;8.388;2023-04-07T06:07:40;12.60;;;9.20;;
6864;SDS011;3471;49.678;8.388;2023-04-07T06:10:06;14.03;;;10.43;;
6864;SDS011;3471;49.678;8.388;2023-04-07T06:12:32;10.77;;;8.95;;
6864;SDS011;3471;49.678;8.388;2023-04-07T06:14:57;10.87;;;9.27;;
6864;SDS011;3471;49.678;8.388;2023-04-07T06:17:23;12.73;;;8.10;;
6864;SDS011;3471;49.678;8.388;2023-04-07T06:19:49;11.13;;;9.87;;
6864;SDS011;3471;49.678;8.388;2023-04-07T06:22:15;11.38;;;10.07;;
6864;SDS011;3471;49.678;8.388;2023-04-07T06:24:40;19.43;;;10.00;;
6864;SDS011;3471;49.678;8.388;2023-04-07T06:27:06;13.27;;;9.80;;
6864;SDS011;3471;49.678;8.388;2023-04-07T06:29:32;11.83;;;8.30;;
6864;SDS011;3471;49.678;8.388;2023-04-07T06:31:58;12.55;;;10.38;;
6864;SDS011;3471;49.678;8.388;2023-04-07T06:34:24;12.35;;;10.02;;
6864;SDS011;3471;49.678;8.388;2023-04-07T06:36:50;10.67;;;9.57;;
6864;SDS011;3471;49.678;8.388;2023-04-07T06:39:15;11.82;;;8.63;;
6864;SDS011;3471;49.678;8.388;2023-04-07T06:41:41;11.18;;;10.07;;
6864;SDS011;3471;49.678;8.388;2023-04-07T06:44:08;11.20;;;8.20;;
6864;SDS011;3471;49.678;8.388;2023-04-07T06:46:35;15.18;;;9.35;;
6864;SDS011;3471;49.678;8.388;2023-04-07T06:49:00;12.73;;;9.45;;
6864;SDS011;3471;49.678;8.388;2023-04-07T06:51:26;15.15;;;9.18;;
6864;SDS011;3471;49.678;8.388;2023-04-07T06:53:52;12.90;;;9.90;;
6864;SDS011;3471;49.678;8.388;2023-04-07T06:56:17;13.73;;;9.80;;
6864;SDS011;3471;49.678;8.388;2023-04-07T06:58:43;19.38;;;11.68;;
6864;SDS011;3471;49.678;8.388;2023-04-07T07:01:08;12.05;;;9.70;;
6864;SDS011;3471;49.678;8.388;2023-04-07T07:03:34;17.53;;;13.90;;
6864;SDS011;3471;49.678;8.388;2023-04-07T07:06:00;24.63;;;11.55;;
6864;SDS011;3471;49.678;8.388;2023-04-07T07:08:26;14.02;;;10.05;;
6864;SDS011;3471;49.678;8.388;2023-04-07T07:10:53;13.20;;;10.10;;
6864;SDS011;3471;49.678;8.388;2023-04-07T07:13:20;14.67;;;9.40;;
6864;SDS011;3471;49.678;8.388;2023-04-07T07:15:50;14.50;;;9.98;;
6864;SDS011;3471;49.678;8.388;2023-04-07T07:18:16;11.20;;;8.83;;
6864;SDS011;3471;49.678;8.388;2023-04-07T07:20:42;12.45;;;9.15;;
6864;SDS011;3471;49.678;8.388;2023-04-07T07:23:08;13.90;;;9.18;;
6864;SDS011;3471;49.678;8.388;2023-04-07T07:25:33;15.60;;;8.10;;
6864;SDS011;3471;49.678;8.388;2023-04-07T07:27:59;10.88;;;8.70;;
6864;SDS011;3471;49.678;8.388;2023-04-07T07:30:25;13.52;;;8.77;;
6864;SDS011;3471;49.678;8.388;2023-04-07T07:32:50;17.33;;;9.77;;
6864;SDS011;3471;49.678;8.388;2023-04-07T07:35:17;9.95;;;8.82;;
6864;SDS011;3471;49.678;8.388;2023-04-07T07:37:44;14.85;;;10.70;;
6864;SDS011;3471;49.678;8.388;2023-04-07T07:40:09;12.23;;;9.43;;
6864;SDS011;3471;49.678;8.388;2023-04-07T07:42:37;9.23;;;7.57;;
6864;SDS011;3471;49.678;8.388;2023-04-07T07:45:03;15.98;;;8.57;;
6864;SDS011;3471;49.678;8.388;2023-04-07T07:47:29;10.73;;;8.73;;
6864;SDS011;3471;49.678;8.388;2023-04-07T07:49:55;14.98;;;9.40;;
6864;SDS011;3471;49.678;8.388;2023-04-07T07:52:21;10.97;;;7.97;;
6864;SDS011;3471;49.678;8.388;2023-04-07T07:54:47;12.90;;;8.70;;
6864;SDS011;3471;49.678;8.388;2023-04-07T07:57:13;11.23;;;7.30;;
6864;SDS011;3471;49.678;8.388;2023-04-07T07:59:38;10.52;;;7.13;;
6864;SDS011;3471;49.678;8.388;2023-04-07T08:02:05;11.30;;;9.65;;
6864;SDS011;3471;49.678;8.388;2023-04-07T08:04:31;20.33;;;9.73;;
6864;SDS011;3471;49.678;8.388;2023-04-07T08:06:57;14.87;;;9.33;;
6864;SDS011;3471;49.678;8.388;2023-04-07T08:09:22;10.10;;;8.07;;
6864;SDS011;3471;49.678;8.388;2023-04-07T08:11:48;11.57;;;8.90;;
6864;SDS011;3471;49.678;8.388;2023-04-07T08:14:15;10.55;;;9.45;;
6864;SDS011;3471;49.678;8.388;2023-04-07T08:16:40;8.73;;;6.47;;
6864;SDS011;3471;49.678;8.388;2023-04-07T08:19:06;10.45;;;8.40;;
6864;SDS011;3471;49.678;8.388;2023-04-07T08:21:32;8.23;;;7.40;;
6864;SDS011;3471;49.678;8.388;2023-04-07T08:23:57;10.40;;;8.20;;
6864;SDS011;3471;49.678;8.388;2023-04-07T08:26:23;10.93;;;7.22;;
6864;SDS011;3471;49.678;8.388;2023-04-07T08:28:49;11.97;;;8.00;;
6864;SDS011;3471;49.678;8.388;2023-04-07T08:31:15;11.85;;;7.30;;
6864;SDS011;3471;49.678;8.388;2023-04-07T08:33:41;14.20;;;7.60;;
6864;SDS011;3471;49.678;8.388;2023-04-07T08:36:07;7.72;;;6.45;;
6864;SDS011;3471;49.678;8.388;2023-04-07T08:38:32;10.75;;;7.57;;
6864;SDS011;3471;49.678;8.388;2023-04-07T08:41:07;10.60;;;7.60;;
6864;SDS011;3471;49.678;8.388;2023-04-07T08:43:36;13.32;;;8.60;;
6864;SDS011;3471;49.678;8.388;2023-04-07T08:46:03;17.55;;;9.60;;
6864;SDS011;3471;49.678;8.388;2023-04-07T08:48:29;10.60;;;9.03;;
6864;SDS011;3471;49.678;8.388;2023-04-07T08:50:59;7.75;;;6.80;;
6864;SDS011;3471;49.678;8.388;2023-04-07T08:53:48;19.77;;;8.00;;
6864;SDS011;3471;49.678;8.388;2023-04-07T08:56:15;10.40;;;8.00;;
6864;SDS011;3471;49.678;8.388;2023-04-07T08:58:42;13.98;;;7.75;;
6864;SDS011;3471;49.678;8.388;2023-04-07T09:01:08;10.40;;;8.40;;
6864;SDS011;3471;49.678;8.388;2023-04-07T09:03:34;9.35;;;6.90;;
6864;SDS011;3471;49.678;8.388;2023-04-07T09:06:00;12.73;;;9.20;;
6864;SDS011;3471;49.678;8.388;2023-04-07T09:08:26;11.85;;;8.82;;
6864;SDS011;3471;49.678;8.388;2023-04-07T09:10:52;10.40;;;7.63;;
6864;SDS011;3471;49.678;8.388;2023-04-07T09:13:18;13.05;;;8.68;;
6864;SDS011;3471;49.678;8.388;2023-04-07T09:15:44;13.80;;;8.43;;
6864;SDS011;3471;49.678;8.388;2023-04-07T09:18:10;10.65;;;7.63;;
6864;SDS011;3471;49.678;8.388;2023-04-07T09:23:28;8.90;;;7.60;;
6864;SDS011;3471;49.678;8.388;2023-04-07T09:25:59;13.13;;;8.90;;
6864;SDS011;3471;49.678;8.388;2023-04-07T09:28:43;10.43;;;8.27;;
6864;SDS011;3471;49.678;8.388;2023-04-07T09:31:10;7.53;;;6.20;;
6864;SDS011;3471;49.678;8.388;2023-04-07T09:33:35;11.43;;;7.40;;
6864;SDS011;3471;49.678;8.388;2023-04-07T09:36:02;18.58;;;8.50;;
6864;SDS011;3471;49.678;8.388;2023-04-07T09:38:35;12.10;;;8.18;;
6864;SDS011;3471;49.678;8.388;2023-04-07T09:41:10;7.40;;;6.70;;
6864;SDS011;3471;49.678;8.388;2023-04-07T09:43:37;11.25;;;7.35;;
6864;SDS011;3471;49.678;8.388;2023-04-07T09:48:34;7.03;;;6.10;;
6864;SDS011;3471;49.678;8.388;2023-04-07T09:51:07;9.82;;;7.25;;
6864;SDS011;3471;49.678;8.388;2023-04-07T09:56:11;12.23;;;7.07;;
6864;SDS011;3471;49.678;8.388;2023-04-07T09:58:38;7.40;;;5.60;;
6864;SDS011;3471;49.678;8.388;2023-04-07T10:01:07;9.45;;;6.30;;
6864;SDS011;3471;49.678;8.388;2023-04-07T10:03:34;6.40;;;5.80;;
6864;SDS011;3471;49.678;8.388;2023-04-07T10:06:00;7.50;;;6.40;;
6864;SDS011;3471;49.678;8.388;2023-04-07T10:08:26;7.13;;;5.50;;
6864;SDS011;3471;49.678;8.388;2023-04-07T10:10:53;4.90;;;4.40;;
6864;SDS011;3471;49.678;8.388;2023-04-07T10:13:20;4.28;;;3.88;;
6864;SDS011;3471;49.678;8.388;2023-04-07T10:15:46;10.75;;;4.70;;
6864;SDS011;3471;49.678;8.388;2023-04-07T10:18:12;6.45;;;5.53;;
6864;SDS011;3471;49.678;8.388;2023-04-07T10:20:39;11.63;;;6.95;;
6864;SDS011;3471;49.678;8.388;2023-04-07T10:23:15;7.90;;;7.10;;
6864;SDS011;3471;49.678;8.388;2023-04-07T10:25:46;6.15;;;4.32;;
6864;SDS011;3471;49.678;8.388;2023-04-07T10:28:16;7.17;;;4.03;;
6864;SDS011;3471;49.678;8.388;2023-04-07T10:30:43;4.65;;;4.22;;
6864;SDS011;3471;49.678;8.388;2023-04-07T10:33:09;4.70;;;4.30;;
6864;SDS011;3471;49.678;8.388;2023-04-07T10:38:30;3.78;;;3.40;;
6864;SDS011;3471;49.678;8.388;2023-04-07T10:40:56;4.80;;;4.32;;
6864;SDS011;3471;49.678;8.388;2023-04-07T10:43:35;5.90;;;4.90;;
6864;SDS011;3471;49.678;8.388;2023-04-07T10:46:05;11.82;;;5.60;;
6864;SDS011;3471;49.678;8.388;2023-04-07T10:48:31;6.05;;;4.38;;
6864;SDS011;3471;49.678;8.388;2023-04-07T10:53:28;4.68;;;4.28;;
6864;SDS011;3471;49.678;8.388;2023-04-07T10:55:55;5.55;;;5.05;;
6864;SDS011;3471;49.678;8.388;2023-04-07T11:03:29;5.07;;;4.40;;
6864;SDS011;3471;49.678;8.388;2023-04-07T11:06:03;7.88;;;5.43;;
6864;SDS011;3471;49.678;8.388;2023-04-07T11:08:32;6.70;;;4.75;;
6864;SDS011;3471;49.678;8.388;2023-04-07T11:11:12;8.93;;;4.88;;
6864;SDS011;3471;49.678;8.388;2023-04-07T11:13:49;6.82;;;6.07;;
6864;SDS011;3471;49.678;8.388;2023-04-07T11:16:16;7.97;;;6.32;;
6864;SDS011;3471;49.678;8.388;2023-04-07T11:18:43;5.57;;;5.07;;
6864;SDS011;3471;49.678;8.388;2023-04-07T11:21:10;4.78;;;4.35;;
6864;SDS011;3471;49.678;8.388;2023-04-07T11:23:43;6.90;;;5.75;;
6864;SDS011;3471;49.678;8.388;2023-04-07T11:26:10;4.93;;;4.43;;
6864;SDS011;3471;49.678;8.388;2023-04-07T11:28:50;16.05;;;5.45;;
6864;SDS011;3471;49.678;8.388;2023-04-07T11:31:24;8.13;;;7.32;;
6864;SDS011;3471;49.678;8.388;2023-04-07T11:33:54;6.93;;;5.77;;
6864;SDS011;3471;49.678;8.388;2023-04-07T11:38:57;6.63;;;5.38;;
6864;SDS011;3471;49.678;8.388;2023-04-07T11:41:24;6.43;;;5.30;;
6864;SDS011;3471;49.678;8.388;2023-04-07T11:44:07;6.10;;;5.15;;
6864;SDS011;3471;49.678;8.388;2023-04-07T11:46:34;6.80;;;5.30;;
6864;SDS011;3471;49.678;8.388;2023-04-07T11:49:07;5.43;;;4.87;;
6864;SDS011;3471;49.678;8.388;2023-04-07T11:51:34;6.45;;;4.13;;
6864;SDS011;3471;49.678;8.388;2023-04-07T11:54:00;7.28;;;4.00;;
6864;SDS011;3471;49.678;8.388;2023-04-07T11:56:26;6.32;;;4.25;;
6864;SDS011;3471;49.678;8.388;2023-04-07T11:58:52;4.38;;;4.00;;
6864;SDS011;3471;49.678;8.388;2023-04-07T12:01:19;4.28;;;3.88;;
6864;SDS011;3471;49.678;8.388;2023-04-07T12:03:56;4.25;;;3.85;;
6864;SDS011;3471;49.678;8.388;2023-04-07T12:06:29;4.90;;;4.40;;
6864;SDS011;3471;49.678;8.388;2023-04-07T12:09:00;4.20;;;3.80;;
6864;SDS011;3471;49.678;8.388;2023-04-07T12:11:26;4.40;;;4.00;;
6864;SDS011;3471;49.678;8.388;2023-04-07T12:13:52;4.70;;;4.30;;
6864;SDS011;3471;49.678;8.388;2023-04-07T12:16:21;6.03;;;3.72;;
6864;SDS011;3471;49.678;8.388;2023-04-07T12:18:47;4.28;;;3.70;;
6864;SDS011;3471;49.678;8.388;2023-04-07T12:21:13;3.75;;;3.28;;
6864;SDS011;3471;49.678;8.388;2023-04-07T12:23:39;4.05;;;3.65;;
6864;SDS011;3471;49.678;8.388;2023-04-07T12:26:06;3.40;;;2.78;;
6864;SDS011;3471;49.678;8.388;2023-04-07T12:28:32;4.03;;;3.10;;
6864;SDS011;3471;49.678;8.388;2023-04-07T12:30:58;3.45;;;3.15;;
6864;SDS011;3471;49.678;8.388;2023-04-07T12:33:24;4.40;;;4.00;;
6864;SDS011;3471;49.678;8.388;2023-04-07T12:35:49;4.18;;;3.40;;
6864;SDS011;3471;49.678;8.388;2023-04-07T12:38:15;4.10;;;2.78;;
6864;SDS011;3471;49.678;8.388;2023-04-07T12:40:41;3.90;;;3.50;;
6864;SDS011;3471;49.678;8.388;2023-04-07T12:43:07;4.65;;;4.10;;
6864;SDS011;3471;49.678;8.388;2023-04-07T12:45:32;3.65;;;3.25;;
6864;SDS011;3471;49.678;8.388;2023-04-07T12:47:58;4.10;;;3.70;;
6864;SDS011;3471;49.678;8.388;2023-04-07T12:50:24;3.33;;;2.72;;
6864;SDS011;3471;49.678;8.388;2023-04-07T12:52:50;3.60;;;3.30;;
6864;SDS011;3471;49.678;8.388;2023-04-07T12:55:17;3.08;;;2.15;;
6864;SDS011;3471;49.678;8.388;2023-04-07T12:57:43;2.90;;;2.30;;
6864;SDS011;3471;49.678;8.388;2023-04-07T13:00:08;4.57;;;3.42;;
6864;SDS011;3471;49.678;8.388;2023-04-07T13:02:34;4.30;;;3.90;;
6864;SDS011;3471;49.678;8.388;2023-04-07T13:05:01;4.05;;;2.85;;
6864;SDS011;3471;49.678;8.388;2023-04-07T13:07:27;4.88;;;3.60;;
6864;SDS011;3471;49.678;8.388;2023-04-07T13:09:53;4.40;;;2.72;;
6864;SDS011;3471;49.678;8.388;2023-04-07T13:12:19;3.80;;;3.50;;
6864;SDS011;3471;49.678;8.388;2023-04-07T13:14:45;4.20;;;3.03;;
6864;SDS011;3471;49.678;8.388;2023-04-07T13:17:10;3.35;;;2.20;;
6864;SDS011;3471;49.678;8.388;2023-04-07T13:19:36;4.40;;;2.97;;
6864;SDS011;3471;49.678;8.388;2023-04-07T13:22:02;2.80;;;2.10;;
6864;SDS011;3471;49.678;8.388;2023-04-07T13:24:27;2.30;;;2.10;;
6864;SDS011;3471;49.678;8.388;2023-04-07T13:26:53;2.60;;;1.70;;
6864;SDS011;3471;49.678;8.388;2023-04-07T13:29:18;2.30;;;1.93;;
6864;SDS011;3471;49.678;8.388;2023-04-07T13:31:45;5.60;;;4.27;;
6864;SDS011;3471;49.678;8.388;2023-04-07T13:34:11;5.50;;;3.85;;
6864;SDS011;3471;49.678;8.388;2023-04-07T13:36:37;4.20;;;3.80;;
6864;SDS011;3471;49.678;8.388;2023-04-07T13:39:03;4.32;;;3.67;;
6864;SDS011;3471;49.678;8.388;2023-04-07T13:41:29;7.22;;;3.33;;
6864;SDS011;3471;49.678;8.388;2023-04-07T13:43:54;6.80;;;3.80;;
6864;SDS011;3471;49.678;8.388;2023-04-07T13:46:20;4.68;;;3.00;;
6864;SDS011;3471;49.678;8.388;2023-04-07T13:48:46;3.63;;;3.10;;
6864;SDS011;3471;49.678;8.388;2023-04-07T13:51:12;4.07;;;3.77;;
6864;SDS011;3471;49.678;8.388;2023-04-07T13:53:37;4.63;;;3.57;;
6864;SDS011;3471;49.678;8.388;2023-04-07T13:56:03;5.15;;;3.63;;
6864;SDS011;3471;49.678;8.388;2023-04-07T13:58:32;3.50;;;3.20;;
6864;SDS011;3471;49.678;8.388;2023-04-07T14:00:58;4.95;;;3.53;;
6864;SDS011;3471;49.678;8.388;2023-04-07T14:03:24;3.97;;;2.80;;
6864;SDS011;3471;49.678;8.388;2023-04-07T14:05:50;6.10;;;2.85;;
6864;SDS011;3471;49.678;8.388;2023-04-07T14:08:15;3.40;;;2.90;;
6864;SDS011;3471;49.678;8.388;2023-04-07T14:10:43;4.53;;;2.72;;
6864;SDS011;3471;49.678;8.388;2023-04-07T14:13:08;4.13;;;2.70;;
6864;SDS011;3471;49.678;8.388;2023-04-07T14:15:35;3.13;;;2.63;;
6864;SDS011;3471;49.678;8.388;2023-04-07T14:18:00;6.07;;;4.63;;
6864;SDS011;3471;49.678;8.388;2023-04-07T14:20:26;4.38;;;2.88;;
6864;SDS011;3471;49.678;8.388;2023-04-07T14:22:51;9.07;;;3.92;;
6864;SDS011;3471;49.678;8.388;2023-04-07T14:25:17;11.70;;;3.80;;
6864;SDS011;3471;49.678;8.388;2023-04-07T14:27:43;5.43;;;2.53;;
6864;SDS011;3471;49.678;8.388;2023-04-07T14:30:08;3.03;;;2.60;;
6864;SDS011;3471;49.678;8.388;2023-04-07T14:32:35;2.88;;;2.58;;
6864;SDS011;3471;49.678;8.388;2023-04-07T14:35:00;4.35;;;3.35;;
6864;SDS011;3471;49.678;8.388;2023-04-07T14:37:26;3.90;;;3.40;;
6864;SDS011;3471;49.678;8.388;2023-04-07T14:39:53;4.35;;;3.95;;
6864;SDS011;3471;49.678;8.388;2023-04-07T14:42:19;4.40;;;3.22;;
6864;SDS011;3471;49.678;8.388;2023-04-07T14:44:45;9.63;;;3.40;;
6864;SDS011;3471;49.678;8.388;2023-04-07T14:47:11;5.93;;;3.47;;
6864;SDS011;3471;49.678;8.388;2023-04-07T14:49:37;3.15;;;2.83;;
6864;SDS011;3471;49.678;8.388;2023-04-07T14:52:02;4.03;;;2.40;;
6864;SDS011;3471;49.678;8.388;2023-04-07T14:54:28;4.63;;;3.17;;
6864;SDS011;3471;49.678;8.388;2023-04-07T14:56:54;4.60;;;3.20;;
6864;SDS011;3471;49.678;8.388;2023-04-07T14:59:21;4.00;;;2.90;;
6864;SDS011;3471;49.678;8.388;2023-04-07T15:01:46;5.30;;;2.60;;
6864;SDS011;3471;49.678;8.388;2023-04-07T15:04:12;3.50;;;2.85;;
6864;SDS011;3471;49.678;8.388;2023-04-07T15:06:41;4.05;;;3.65;;
6864;SDS011;3471;49.678;8.388;2023-04-07T15:09:07;3.40;;;2.47;;
6864;SDS011;3471;49.678;8.388;2023-04-07T15:11:33;3.53;;;3.22;;
6864;SDS011;3471;49.678;8.388;2023-04-07T15:13:58;3.27;;;2.67;;
6864;SDS011;3471;49.678;8.388;2023-04-07T15:16:24;4.50;;;3.67;;
6864;SDS011;3471;49.678;8.388;2023-04-07T15:18:50;6.03;;;2.70;;
6864;SDS011;3471;49.678;8.388;2023-04-07T15:21:16;4.68;;;2.70;;
6864;SDS011;3471;49.678;8.388;2023-04-07T15:23:42;4.20;;;3.40;;
6864;SDS011;3471;49.678;8.388;2023-04-07T15:26:10;5.10;;;3.10;;
6864;SDS011;3471;49.678;8.388;2023-04-07T15:28:36;2.78;;;2.58;;
6864;SDS011;3471;49.678;8.388;2023-04-07T15:31:02;5.22;;;3.70;;